Avon, ME

6:43 PM EST on February 09, 2016 (GMT -0500)
Toothaker Pond | | Change Station
CLOSE
Current Station
Personal Weather Station
Location: Phillips, ME
Elevation: 820 ft
Nearby Weather Stations

Elev 820 ft 44.87 °N, 70.40 °W | Updated 12 minutes ago

Mostly Cloudy
Mostly Cloudy
16.3 °F
Feels Like 16 °F
N
1.7
Wind Variable Wind from ESE

Today
High -- | Low -- °F
--% Chance of Precip.
Yesterday
High -- | Low -- °F
Precip. -- in
Pressure 29.71 in
Visibility 10.0 miles
Clouds Mostly Cloudy 2400 ft
Windchill 16 °F
Dew Point 13 °F
Humidity 86%
Rainfall 0.00 in
Snow Depth Not available.
6:51 AM 5:00 PM
Waxing Crescent, 3% visible
METAR KWVL 092256Z AUTO 35003KT 10SM BKN024 M09/M11 A2959 RMK AO2 SLP059 T10891111 FZRANO
Pressure 29.71 in
Visibility 10.0 miles
Clouds Mostly Cloudy 2400 ft
Windchill 16 °F
Dew Point 13 °F
Humidity 86%
Rainfall 0.00 in
Snow Depth Not available.
6:51 AM 5:00 PM
Waxing Crescent, 3% visible
METAR KWVL 092256Z AUTO 35003KT 10SM BKN024 M09/M11 A2959 RMK AO2 SLP059 T10891111 FZRANO

10-Day Weather Forecast

Almanac

Astronomy

Feb. 09, 2016 Rise Set
Actual Time
Civil Twilight
Nautical Twilight
Astronomical Twilight
Moon
Length of Visible Light
Length of Day
Tomorrow will be .
, % of the Moon is Illuminated

Today's Extremes

State Highs State Lows

Community

WunderPhotos

Upload Photos

1,891,744 photos uploaded!

WunderBlog® & News

Nearby

Air Quality

  Air Quality AQ Index Pollutant
Not available.

Snow Depth

Station Depth Elevation

Earthquake Activity

City Distance Mag. Time & Date
Minimum magnitude displayed is 2.5.

Coastal Water Temperatures

Place Temperature

Stations

Nearby Weather Stations

Station Location Temp. Windchill Dew Point Humidity Wind Precip. Elev Updated Type
                   

Watches & Warnings

There are currently no watches in effect.